Time;durP1;ratioP1;P1;durP2;ratioP2;P2;SDS_P1;SDS_P2;PMS_P1;PMS_P2;Temp;Humidity;BMP_temperature;BMP_pressure;BME280_temperature;BME280_humidity;BME280_pressure;Samples;Min_cycle;Max_cycle;Signal;HPM_P1;HPM_P2
2021/07/12 00:01:47;;;;;;;8.77;4.13;;;17.40;95.30;;;;;;5057420;28;20205;-84
2021/07/12 00:04:14;;;;;;;8.80;4.90;;;17.40;95.50;;;;;;5058765;28;20408;-86
2021/07/12 00:06:40;;;;;;;7.55;4.40;;;17.40;95.50;;;;;;5057760;28;20412;-86
2021/07/12 00:09:06;;;;;;;5.60;3.90;;;17.30;95.50;;;;;;5057420;28;20723;-86
2021/07/12 00:11:32;;;;;;;7.80;4.18;;;17.30;95.50;;;;;;5058245;28;20231;-86
2021/07/12 00:13:58;;;;;;;8.65;4.10;;;17.30;95.70;;;;;;5058692;28;20635;-86
2021/07/12 00:16:24;;;;;;;6.72;3.80;;;17.30;95.70;;;;;;5057325;28;20165;-86
2021/07/12 00:18:50;;;;;;;6.83;3.67;;;17.30;95.80;;;;;;5058261;28;20542;-86
2021/07/12 00:21:17;;;;;;;5.80;3.92;;;17.20;95.80;;;;;;5057994;28;20416;-86
2021/07/12 00:23:43;;;;;;;7.63;3.38;;;17.20;96.00;;;;;;5057762;28;20181;-86
2021/07/12 00:26:09;;;;;;;5.90;3.95;;;17.10;96.30;;;;;;5059054;28;20200;-85
2021/07/12 00:28:35;;;;;;;6.73;3.37;;;17.10;96.60;;;;;;5059872;28;20576;-85
2021/07/12 00:31:01;;;;;;;7.85;3.88;;;17.10;96.80;;;;;;5059665;28;20426;-85
2021/07/12 00:33:27;;;;;;;8.80;4.07;;;17.00;97.20;;;;;;5059045;28;20712;-84
2021/07/12 00:35:53;;;;;;;5.68;4.05;;;16.90;97.80;;;;;;5059225;28;20416;-85
2021/07/12 00:38:18;;;;;;;12.77;4.10;;;16.80;98.20;;;;;;5059110;28;20180;-85
2021/07/12 00:40:44;;;;;;;8.13;4.00;;;16.80;98.30;;;;;;5058854;28;20177;-85
2021/07/12 00:43:10;;;;;;;7.07;3.50;;;16.80;98.30;;;;;;5058823;28;20265;-85
2021/07/12 00:45:37;;;;;;;6.07;3.42;;;16.80;98.30;;;;;;5058924;28;20368;-85
2021/07/12 00:48:05;;;;;;;6.05;3.92;;;16.80;98.20;;;;;;5058501;28;20205;-85
2021/07/12 00:50:32;;;;;;;10.20;4.10;;;16.80;98.30;;;;;;5059384;28;20204;-85
2021/07/12 00:52:59;;;;;;;5.07;3.63;;;16.80;98.00;;;;;;5059188;28;20189;-85
2021/07/12 00:55:33;;;;;;;7.53;4.65;;;16.70;98.00;;;;;;5059441;28;20200;-85
2021/07/12 00:58:01;;;;;;;10.90;3.83;;;16.80;97.90;;;;;;5059350;28;20633;-85
2021/07/12 01:00:28;;;;;;;9.52;4.30;;;16.70;97.90;;;;;;5059309;28;20196;-85
2021/07/12 01:02:54;;;;;;;6.35;3.90;;;16.70;98.00;;;;;;5058198;28;20201;-85
2021/07/12 01:05:21;;;;;;;7.28;3.72;;;16.70;97.80;;;;;;5058266;28;20173;-85
2021/07/12 01:07:47;;;;;;;7.57;4.68;;;16.70;97.60;;;;;;5057538;28;20224;-85
2021/07/12 01:10:16;;;;;;;5.78;3.63;;;16.70;97.50;;;;;;5059072;28;20186;-85
2021/07/12 01:13:15;;;;;;;6.55;3.97;;;16.70;97.30;;;;;;5058157;28;20212;-85
2021/07/12 01:16:07;;;;;;;8.88;3.33;;;16.70;97.30;;;;;;5057641;28;20255;-85
2021/07/12 01:19:15;;;;;;;5.20;3.08;;;16.70;97.30;;;;;;5057647;28;20280;-85
2021/07/12 01:22:12;;;;;;;7.32;3.95;;;16.70;97.10;;;;;;5056528;28;20223;-85
2021/07/12 01:24:41;;;;;;;4.82;3.40;;;16.70;96.70;;;;;;5058573;28;20173;-86
2021/07/12 01:27:36;;;;;;;4.85;3.38;;;16.70;96.50;;;;;;5057725;28;20178;-85
2021/07/12 01:30:09;;;;;;;6.47;3.30;;;16.60;96.60;;;;;;5057203;28;20180;-85
2021/07/12 01:33:08;;;;;;;5.75;3.28;;;16.60;97.00;;;;;;5057643;28;20189;-85
2021/07/12 01:35:59;;;;;;;3.80;2.40;;;16.60;97.20;;;;;;5055012;28;20179;-85
2021/07/12 01:38:49;;;;;;;8.27;3.80;;;16.60;97.30;;;;;;5055544;28;20181;-85
2021/07/12 01:41:36;;;;;;;4.95;3.00;;;16.50;97.20;;;;;;5054803;28;20255;-85
2021/07/12 01:44:21;;;;;;;5.00;3.25;;;16.50;97.00;;;;;;5054928;28;20530;-85
2021/07/12 01:47:08;;;;;;;4.50;3.25;;;16.50;96.80;;;;;;5054815;28;20176;-85
2021/07/12 01:49:47;;;;;;;5.78;2.75;;;16.50;97.10;;;;;;5054996;28;20179;-85
2021/07/12 01:52:14;;;;;;;6.20;3.10;;;16.40;97.10;;;;;;5055084;28;20196;-85
2021/07/12 01:55:24;;;;;;;4.80;2.95;;;16.40;97.10;;;;;;5054349;28;20173;-86
2021/07/12 01:58:09;;;;;;;7.85;3.38;;;16.40;97.10;;;;;;5035247;28;20296;-85
2021/07/12 02:00:35;;;;;;;6.10;3.10;;;16.40;97.30;;;;;;5054573;28;20193;-85
2021/07/12 02:03:02;;;;;;;4.68;3.05;;;16.30;97.30;;;;;;5055042;28;20193;-85
2021/07/12 02:05:33;;;;;;;3.75;2.75;;;16.30;97.30;;;;;;5055208;28;20177;-85
2021/07/12 02:08:01;;;;;;;6.97;3.70;;;16.30;97.30;;;;;;5055341;28;20220;-85
2021/07/12 02:10:29;;;;;;;5.40;3.33;;;16.30;97.30;;;;;;5055031;28;20560;-85
2021/07/12 02:12:56;;;;;;;3.88;2.67;;;16.30;97.30;;;;;;5055386;28;20189;-85
2021/07/12 02:15:24;;;;;;;5.00;2.85;;;16.30;97.10;;;;;;5054734;28;20173;-85
2021/07/12 02:17:51;;;;;;;5.25;2.97;;;16.20;97.20;;;;;;5054934;28;20169;-85
2021/07/12 02:20:20;;;;;;;5.28;3.13;;;16.20;97.40;;;;;;5054494;28;20188;-85
2021/07/12 02:22:48;;;;;;;6.28;3.05;;;16.20;97.70;;;;;;5054584;28;20193;-85
2021/07/12 02:25:15;;;;;;;4.28;3.10;;;16.20;98.00;;;;;;5054990;28;20181;-85
2021/07/12 02:27:46;;;;;;;3.20;2.38;;;16.10;98.10;;;;;;5054984;28;20208;-85
2021/07/12 02:30:13;;;;;;;7.13;3.40;;;16.10;97.90;;;;;;5056055;28;20172;-85
2021/07/12 02:32:40;;;;;;;7.80;5.40;;;16.10;97.80;;;;;;5055957;28;20193;-85
2021/07/12 02:35:09;;;;;;;5.40;2.88;;;16.10;97.80;;;;;;5059571;28;20535;-85
2021/07/12 02:37:41;;;;;;;6.60;4.15;;;16.10;97.90;;;;;;5059562;28;20234;-85
2021/07/12 02:40:09;;;;;;;4.85;3.33;;;16.10;98.40;;;;;;5060059;28;20177;-85
2021/07/12 02:42:40;;;;;;;4.00;2.85;;;16.00;98.60;;;;;;5045256;28;20197;-85
2021/07/12 02:45:08;;;;;;;6.82;3.55;;;16.00;98.50;;;;;;5060960;28;20196;-85
2021/07/12 02:47:35;;;;;;;9.38;4.32;;;16.00;98.40;;;;;;5059599;28;20231;-85
2021/07/12 02:50:03;;;;;;;6.53;2.90;;;16.00;98.10;;;;;;5059582;28;20169;-86
2021/07/12 02:52:57;;;;;;;4.00;2.88;;;16.00;97.90;;;;;;5059784;28;20200;-85
2021/07/12 02:55:23;;;;;;;4.30;2.50;;;15.90;98.40;;;;;;5054129;28;20207;-85
2021/07/12 02:57:49;;;;;;;4.53;3.33;;;15.90;98.40;;;;;;5059837;28;20272;-85
2021/07/12 03:00:15;;;;;;;4.77;3.00;;;15.90;98.40;;;;;;5058897;28;20438;-85
2021/07/12 03:02:41;;;;;;;3.47;2.97;;;15.90;98.60;;;;;;5059765;28;21029;-85
2021/07/12 03:05:09;;;;;;;5.45;3.40;;;15.90;98.90;;;;;;5058188;28;20220;-85
2021/07/12 03:07:42;;;;;;;5.65;2.95;;;15.90;98.80;;;;;;5058005;28;20566;-85
2021/07/12 03:10:17;;;;;;;11.68;4.03;;;15.80;98.90;;;;;;5058592;28;20175;-85
2021/07/12 03:12:51;;;;;;;5.28;2.90;;;15.80;99.00;;;;;;5059072;28;20193;-85
2021/07/12 03:15:29;;;;;;;6.32;3.20;;;15.80;99.10;;;;;;5058269;28;20634;-85
2021/07/12 03:17:56;;;;;;;4.45;3.15;;;15.80;99.10;;;;;;5058423;28;20180;-85
2021/07/12 03:20:24;;;;;;;9.68;4.10;;;15.80;99.10;;;;;;5058709;28;20178;-85
2021/07/12 03:22:55;;;;;;;5.15;3.70;;;15.70;99.10;;;;;;5060218;28;20185;-85
2021/07/12 03:25:29;;;;;;;7.68;3.70;;;15.60;99.10;;;;;;5058868;28;20174;-85
2021/07/12 03:27:57;;;;;;;6.38;3.67;;;15.60;99.10;;;;;;5058003;28;20201;-85
2021/07/12 03:30:25;;;;;;;5.57;2.90;;;15.60;99.10;;;;;;5058570;28;20563;-85
2021/07/12 03:32:53;;;;;;;6.40;4.47;;;15.60;99.10;;;;;;5057893;28;20284;-86
2021/07/12 03:35:19;;;;;;;5.20;3.00;;;15.70;99.10;;;;;;5057437;28;20204;-85
2021/07/12 03:37:46;;;;;;;6.10;4.53;;;15.60;99.10;;;;;;5057681;28;20181;-85
2021/07/12 03:40:12;;;;;;;6.05;4.18;;;15.60;99.10;;;;;;5057836;28;20177;-85
2021/07/12 03:42:39;;;;;;;6.47;4.13;;;15.60;99.10;;;;;;5057805;28;20197;-85
2021/07/12 03:45:06;;;;;;;6.05;3.97;;;15.60;99.10;;;;;;5056467;28;20189;-86
2021/07/12 03:47:37;;;;;;;9.60;4.30;;;15.60;99.10;;;;;;5057055;28;20197;-85
2021/07/12 03:50:11;;;;;;;9.90;4.25;;;15.60;99.10;;;;;;5057236;28;20385;-85
2021/07/12 03:52:52;;;;;;;7.10;4.55;;;15.60;99.10;;;;;;5057346;28;20185;-85
2021/07/12 03:55:24;;;;;;;8.02;4.68;;;15.60;99.10;;;;;;5056779;28;20169;-84
2021/07/12 03:57:50;;;;;;;4.60;3.40;;;15.50;99.10;;;;;;5057405;28;20173;-84
2021/07/12 04:00:19;;;;;;;6.50;3.90;;;15.60;99.10;;;;;;5057058;28;20558;-84
2021/07/12 04:02:45;;;;;;;7.68;4.45;;;15.60;99.10;;;;;;5056067;28;20197;-84
2021/07/12 04:05:12;;;;;;;7.65;4.45;;;15.60;99.10;;;;;;5056590;28;20173;-84
2021/07/12 04:07:39;;;;;;;9.00;4.55;;;15.60;99.10;;;;;;5057123;28;20195;-85
2021/07/12 04:10:07;;;;;;;4.70;3.35;;;15.60;99.10;;;;;;5056057;28;20169;-85
2021/07/12 04:12:33;;;;;;;6.00;3.80;;;15.60;99.10;;;;;;5055906;28;20216;-84
2021/07/12 04:14:59;;;;;;;6.63;3.60;;;15.50;99.10;;;;;;5056088;28;20173;-84
2021/07/12 04:17:25;;;;;;;8.13;4.43;;;15.50;99.10;;;;;;5056016;28;20173;-85
2021/07/12 04:19:54;;;;;;;9.18;4.78;;;15.50;99.10;;;;;;5056063;28;20420;-84
2021/07/12 04:22:20;;;;;;;8.73;5.00;;;15.50;99.10;;;;;;5055914;28;20185;-85
2021/07/12 04:24:46;;;;;;;9.02;4.15;;;15.50;99.10;;;;;;5055874;28;20256;-84
2021/07/12 04:27:12;;;;;;;7.53;4.40;;;15.60;99.10;;;;;;5055914;28;20169;-84
2021/07/12 04:29:38;;;;;;;7.50;4.57;;;15.60;99.10;;;;;;5056542;28;20180;-84
2021/07/12 04:32:04;;;;;;;9.30;4.83;;;15.60;99.10;;;;;;5055999;28;20213;-84
2021/07/12 04:34:30;;;;;;;12.27;5.30;;;15.60;99.10;;;;;;5056190;28;20173;-84
2021/07/12 04:36:56;;;;;;;9.35;5.18;;;15.60;99.10;;;;;;5056809;28;20636;-84
2021/07/12 04:39:22;;;;;;;11.32;5.25;;;15.60;99.10;;;;;;5055697;28;20219;-84
2021/07/12 04:41:48;;;;;;;9.20;4.13;;;15.70;99.10;;;;;;5055783;28;20538;-84
2021/07/12 04:44:14;;;;;;;11.30;5.60;;;15.80;99.10;;;;;;5056133;28;20180;-84
2021/07/12 04:46:40;;;;;;;9.93;6.10;;;15.80;99.10;;;;;;5054380;28;20780;-84
2021/07/12 04:49:06;;;;;;;8.70;4.60;;;15.90;99.10;;;;;;5054215;28;20459;-84
2021/07/12 04:51:31;;;;;;;10.25;5.43;;;16.00;99.10;;;;;;5054168;28;20431;-84
2021/07/12 04:53:58;;;;;;;7.63;4.80;;;16.00;99.10;;;;;;5055359;28;20227;-84
2021/07/12 04:56:24;;;;;;;9.07;4.82;;;16.00;99.10;;;;;;5053638;28;20503;-84
2021/07/12 04:58:51;;;;;;;8.00;4.93;;;16.10;99.10;;;;;;5053910;28;20284;-84
2021/07/12 05:01:18;;;;;;;8.98;4.57;;;16.20;99.10;;;;;;5053780;28;20212;-84
2021/07/12 05:03:43;;;;;;;14.77;4.90;;;16.20;99.10;;;;;;5053775;28;20279;-86
2021/07/12 05:06:10;;;;;;;7.33;4.20;;;16.30;99.10;;;;;;5053621;28;20207;-84
2021/07/12 05:08:36;;;;;;;6.97;4.63;;;16.30;99.10;;;;;;5054578;28;20482;-84
2021/07/12 05:11:02;;;;;;;6.93;4.23;;;16.40;99.10;;;;;;5054766;28;20173;-84
2021/07/12 05:13:31;;;;;;;8.32;4.50;;;16.40;99.10;;;;;;5054287;28;20408;-85
2021/07/12 05:15:58;;;;;;;6.78;3.90;;;16.50;99.10;;;;;;5054224;28;20165;-84
2021/07/12 05:18:24;;;;;;;11.20;5.13;;;16.60;99.10;;;;;;5054435;28;20184;-85
2021/07/12 05:20:51;;;;;;;14.00;4.75;;;16.70;99.10;;;;;;5053135;28;20263;-85
2021/07/12 05:23:18;;;;;;;9.63;5.47;;;16.80;99.10;;;;;;5053197;28;20225;-85
2021/07/12 05:25:44;;;;;;;17.48;7.32;;;16.90;99.10;;;;;;5053408;28;20496;-85
2021/07/12 05:28:10;;;;;;;18.90;9.32;;;16.90;98.90;;;;;;5053593;28;20292;-84
2021/07/12 05:30:35;;;;;;;26.33;8.50;;;17.10;98.20;;;;;;5052978;28;20215;-85
2021/07/12 05:33:01;;;;;;;26.90;9.70;;;17.10;97.30;;;;;;5053720;28;20243;-85
2021/07/12 05:35:27;;;;;;;17.17;9.83;;;17.20;97.40;;;;;;5052967;28;20211;-85
2021/07/12 05:37:53;;;;;;;11.90;8.17;;;17.20;97.50;;;;;;5053269;28;20692;-85
2021/07/12 05:40:18;;;;;;;13.93;7.33;;;17.30;97.40;;;;;;5052856;28;20180;-85
2021/07/12 05:42:44;;;;;;;15.33;7.27;;;17.30;97.30;;;;;;5052747;28;20212;-85
2021/07/12 05:45:10;;;;;;;14.67;7.33;;;17.40;96.90;;;;;;5052610;28;20260;-85
2021/07/12 05:47:36;;;;;;;11.88;6.63;;;17.50;97.00;;;;;;5052587;28;20458;-85
2021/07/12 05:50:04;;;;;;;14.27;6.20;;;17.60;96.90;;;;;;5053114;28;20165;-84
2021/07/12 05:52:32;;;;;;;10.25;5.88;;;17.60;96.60;;;;;;5053172;28;20577;-84
2021/07/12 05:54:58;;;;;;;8.38;4.72;;;17.70;96.30;;;;;;5053665;28;20201;-84
2021/07/12 05:57:24;;;;;;;8.48;5.03;;;17.80;96.20;;;;;;5053739;28;20173;-84
2021/07/12 05:59:50;;;;;;;15.95;5.47;;;17.90;96.30;;;;;;5054749;28;20185;-84
2021/07/12 06:02:16;;;;;;;10.40;5.33;;;18.00;95.60;;;;;;5053787;28;20684;-85
2021/07/12 06:04:44;;;;;;;6.77;4.57;;;18.10;95.40;;;;;;5053198;28;20517;-85
2021/07/12 06:07:10;;;;;;;7.45;5.03;;;18.20;95.50;;;;;;5054313;28;20266;-85
2021/07/12 06:09:36;;;;;;;13.48;5.00;;;18.30;94.50;;;;;;5057518;28;20180;-85
2021/07/12 06:12:02;;;;;;;9.13;4.37;;;18.40;95.20;;;;;;5056992;28;20193;-85
2021/07/12 06:14:28;;;;;;;11.00;4.95;;;18.60;94.60;;;;;;5057448;28;20426;-85
2021/07/12 06:16:53;;;;;;;8.27;4.60;;;18.70;93.80;;;;;;5056847;28;20177;-85
2021/07/12 06:19:19;;;;;;;6.13;3.50;;;18.90;93.20;;;;;;5056780;28;20231;-85
2021/07/12 06:21:45;;;;;;;7.23;4.07;;;19.00;93.30;;;;;;5056837;28;20286;-84
2021/07/12 06:24:11;;;;;;;11.97;3.10;;;19.10;92.50;;;;;;5056393;28;20177;-85
2021/07/12 06:26:37;;;;;;;8.00;3.57;;;19.30;92.90;;;;;;5056614;28;20411;-85
2021/07/12 06:29:03;;;;;;;7.40;4.18;;;19.40;92.40;;;;;;5057238;28;20209;-85
2021/07/12 06:31:29;;;;;;;11.05;5.00;;;19.60;91.20;;;;;;5056732;28;20194;-86
2021/07/12 06:33:54;;;;;;;7.13;4.23;;;19.80;90.70;;;;;;5056220;28;20195;-85
2021/07/12 06:36:20;;;;;;;7.60;4.80;;;19.90;90.30;;;;;;5055555;28;20803;-85
2021/07/12 06:38:46;;;;;;;5.70;3.97;;;20.00;90.30;;;;;;5056334;28;20173;-85
2021/07/12 06:41:12;;;;;;;7.90;3.70;;;20.20;89.90;;;;;;5055725;28;20419;-85
2021/07/12 06:43:38;;;;;;;8.67;4.20;;;20.40;88.70;;;;;;5056235;28;20177;-85
2021/07/12 06:46:03;;;;;;;15.07;6.03;;;20.40;87.40;;;;;;5055773;28;20177;-85
2021/07/12 06:48:29;;;;;;;7.50;4.00;;;20.50;86.60;;;;;;5055581;28;20455;-85
2021/07/12 06:50:55;;;;;;;5.67;3.53;;;20.50;86.40;;;;;;5056135;28;20408;-85
2021/07/12 06:53:21;;;;;;;15.35;4.22;;;20.50;86.90;;;;;;5055908;28;20185;-85
2021/07/12 06:55:47;;;;;;;9.20;3.90;;;20.60;87.10;;;;;;5056096;28;20180;-85
2021/07/12 06:58:13;;;;;;;6.20;3.30;;;20.70;86.90;;;;;;5055627;28;20181;-85
2021/07/12 07:00:42;;;;;;;10.07;3.63;;;20.80;86.40;;;;;;5055742;28;20509;-85
2021/07/12 07:03:09;;;;;;;8.07;3.80;;;20.90;86.60;;;;;;5055320;28;20287;-85
2021/07/12 07:05:36;;;;;;;7.03;4.05;;;21.10;86.00;;;;;;5055747;28;20180;-85
2021/07/12 07:08:02;;;;;;;9.13;3.22;;;21.20;86.60;;;;;;5055686;28;20555;-85
2021/07/12 07:10:28;;;;;;;6.07;4.13;;;21.40;85.90;;;;;;5055909;28;20169;-85
2021/07/12 07:12:54;;;;;;;10.20;3.93;;;21.50;85.30;;;;;;5055365;28;20192;-85
2021/07/12 07:15:20;;;;;;;9.63;3.63;;;21.70;83.50;;;;;;5055483;28;20403;-85
2021/07/12 07:17:45;;;;;;;7.43;3.50;;;21.80;83.70;;;;;;5055274;28;20465;-85
2021/07/12 07:20:12;;;;;;;6.33;3.50;;;22.00;85.20;;;;;;5054772;28;20420;-85
2021/07/12 07:22:38;;;;;;;7.55;3.85;;;22.10;83.10;;;;;;5055204;28;20204;-86
2021/07/12 07:25:05;;;;;;;8.93;3.87;;;22.20;83.00;;;;;;5055365;28;20181;-86
2021/07/12 07:27:32;;;;;;;9.27;3.22;;;22.30;81.70;;;;;;5055080;28;20420;-85
2021/07/12 07:29:58;;;;;;;3.72;2.90;;;22.40;81.00;;;;;;5055267;28;20165;-85
2021/07/12 07:32:24;;;;;;;6.05;3.58;;;22.40;79.40;;;;;;5055189;28;20549;-85
2021/07/12 07:34:50;;;;;;;6.28;3.65;;;22.40;82.40;;;;;;5055569;28;20245;-86
2021/07/12 07:37:16;;;;;;;11.33;3.73;;;22.50;80.10;;;;;;5056175;28;20632;-85
2021/07/12 07:39:42;;;;;;;7.23;3.10;;;22.70;80.30;;;;;;5055500;28;20169;-85
2021/07/12 07:42:08;;;;;;;5.17;3.20;;;22.80;78.10;;;;;;5054979;28;20536;-85
2021/07/12 07:44:34;;;;;;;5.90;3.45;;;23.00;78.00;;;;;;5055056;28;20423;-85
2021/07/12 07:47:00;;;;;;;8.45;2.95;;;23.20;78.50;;;;;;5054361;28;20264;-86
2021/07/12 07:49:27;;;;;;;5.57;3.08;;;23.40;78.50;;;;;;5054548;28;20201;-86
2021/07/12 07:51:53;;;;;;;5.68;3.25;;;23.50;77.60;;;;;;5055057;28;20216;-86
2021/07/12 07:54:18;;;;;;;5.17;3.17;;;23.70;74.60;;;;;;5055208;28;20200;-85
2021/07/12 07:56:45;;;;;;;6.07;2.80;;;23.90;76.40;;;;;;5054327;28;20411;-85
2021/07/12 07:59:11;;;;;;;5.70;2.85;;;24.10;74.80;;;;;;5054838;28;20426;-85
2021/07/12 08:01:36;;;;;;;3.38;2.25;;;24.10;73.10;;;;;;5054344;28;20224;-86
2021/07/12 08:04:02;;;;;;;3.67;2.57;;;24.20;73.40;;;;;;5055092;28;20181;-86
2021/07/12 08:06:28;;;;;;;6.47;2.50;;;24.40;73.10;;;;;;5055102;28;20176;-86
2021/07/12 08:08:55;;;;;;;4.83;2.90;;;24.60;72.40;;;;;;5054810;28;20200;-86
2021/07/12 08:11:21;;;;;;;4.38;2.47;;;24.70;72.00;;;;;;5054581;28;20454;-85
2021/07/12 08:13:47;;;;;;;4.95;2.70;;;24.80;70.80;;;;;;5054559;28;20173;-86
2021/07/12 08:16:13;;;;;;;3.50;2.40;;;25.10;69.80;;;;;;5054658;28;20173;-86
2021/07/12 08:18:39;;;;;;;7.32;2.40;;;25.20;69.50;;;;;;5054625;28;20170;-86
2021/07/12 08:21:07;;;;;;;3.63;1.87;;;25.30;70.10;;;;;;5054775;28;20272;-86
2021/07/12 08:23:33;;;;;;;4.28;2.22;;;25.40;70.10;;;;;;5054585;28;20431;-86
2021/07/12 08:25:59;;;;;;;4.77;2.40;;;25.60;67.10;;;;;;5055391;28;20538;-86
2021/07/12 08:28:25;;;;;;;4.40;2.20;;;25.60;69.20;;;;;;5053943;28;20887;-85
2021/07/12 08:30:52;;;;;;;6.63;2.30;;;25.70;70.20;;;;;;5053844;28;20201;-86
2021/07/12 08:33:19;;;;;;;5.93;2.05;;;25.80;66.60;;;;;;5053368;28;20471;-86
2021/07/12 08:35:45;;;;;;;6.55;2.17;;;25.80;65.60;;;;;;5053346;28;20228;-85
2021/07/12 08:38:11;;;;;;;3.47;2.10;;;26.00;66.60;;;;;;5052566;28;20172;-85
2021/07/12 08:40:37;;;;;;;2.90;1.70;;;26.20;66.20;;;;;;5053509;28;20633;-85
2021/07/12 08:43:03;;;;;;;4.03;2.13;;;26.30;65.80;;;;;;5053435;28;20197;-85
2021/07/12 08:45:29;;;;;;;5.18;2.20;;;26.40;65.50;;;;;;5053276;28;20184;-86
2021/07/12 08:47:56;;;;;;;5.53;2.30;;;26.60;65.90;;;;;;5053211;28;20220;-85
2021/07/12 08:50:23;;;;;;;3.08;1.77;;;26.70;63.90;;;;;;5053162;28;20287;-86
2021/07/12 08:52:51;;;;;;;4.78;2.00;;;26.80;63.90;;;;;;5053418;28;20738;-85
2021/07/12 08:55:17;;;;;;;5.82;1.80;;;26.80;63.80;;;;;;5053172;28;20311;-86
2021/07/12 08:58:01;;;;;;;2.47;1.75;;;26.90;65.10;;;;;;5053110;28;20192;-86
2021/07/12 09:00:45;;;;;;;2.65;1.95;;;27.00;64.60;;;;;;5053598;28;20199;-86
2021/07/12 09:03:23;;;;;;;3.15;1.73;;;26.90;62.10;;;;;;5052751;28;20227;-86
2021/07/12 09:06:05;;;;;;;2.45;2.00;;;26.90;63.30;;;;;;5052832;28;20179;-86
2021/07/12 09:08:44;;;;;;;9.60;1.98;;;27.10;63.70;;;;;;5052999;28;20230;-86
2021/07/12 09:11:35;;;;;;;2.33;1.55;;;27.00;63.10;;;;;;5052768;28;20231;-86
2021/07/12 09:14:12;;;;;;;2.30;1.60;;;27.20;60.60;;;;;;5052312;28;20238;-86
2021/07/12 09:16:39;;;;;;;4.95;2.22;;;27.30;60.90;;;;;;5053245;28;20528;-85
2021/07/12 09:19:35;;;;;;;2.92;2.10;;;27.40;61.60;;;;;;5053465;28;20181;-85
2021/07/12 09:22:32;;;;;;;3.10;1.90;;;27.60;61.30;;;;;;5052020;28;20204;-85
2021/07/12 09:25:00;;;;;;;3.75;1.77;;;27.60;62.00;;;;;;5051629;28;20181;-85
2021/07/12 09:27:29;;;;;;;3.20;2.08;;;27.80;58.80;;;;;;5052834;28;20177;-85
2021/07/12 09:30:06;;;;;;;5.25;1.90;;;27.80;59.10;;;;;;5053145;28;20184;-85
2021/07/12 09:32:34;;;;;;;3.85;2.13;;;27.90;59.40;;;;;;5052889;28;20196;-86
2021/07/12 09:35:06;;;;;;;2.15;1.70;;;27.90;60.30;;;;;;5052157;28;20173;-86
2021/07/12 09:37:33;;;;;;;3.30;1.90;;;27.90;58.10;;;;;;5052732;28;20166;-86
2021/07/12 09:40:05;;;;;;;3.00;2.03;;;27.80;58.80;;;;;;5052685;28;20170;-86
2021/07/12 09:42:31;;;;;;;3.50;1.88;;;27.90;59.60;;;;;;5052798;28;20192;-86
2021/07/12 09:45:11;;;;;;;7.28;2.00;;;28.00;58.90;;;;;;5052044;28;20177;-86
2021/07/12 09:47:39;;;;;;;4.50;1.90;;;28.10;60.10;;;;;;5052944;28;20169;-86
2021/07/12 09:50:25;;;;;;;3.30;1.90;;;28.30;60.80;;;;;;5052403;28;20173;-86
2021/07/12 09:52:54;;;;;;;8.35;2.55;;;28.60;59.20;;;;;;5052899;28;20608;-86
2021/07/12 09:55:23;;;;;;;5.82;2.42;;;28.80;58.30;;;;;;5052917;28;20187;-86
2021/07/12 09:58:11;;;;;;;2.35;1.65;;;29.00;58.10;;;;;;5052980;28;20173;-86
2021/07/12 10:00:41;;;;;;;3.35;2.30;;;29.20;57.70;;;;;;5052940;28;20193;-86
2021/07/12 10:03:07;;;;;;;3.92;2.42;;;29.30;56.60;;;;;;5052716;28;20231;-86
2021/07/12 10:05:33;;;;;;;6.03;2.00;;;29.30;56.70;;;;;;5053271;28;20180;-86
2021/07/12 10:07:59;;;;;;;4.60;1.90;;;29.40;54.50;;;;;;5056509;28;20203;-84
2021/07/12 10:10:25;;;;;;;3.17;1.90;;;29.50;57.10;;;;;;5056613;28;20252;-84
2021/07/12 10:12:53;;;;;;;3.90;2.47;;;29.60;54.30;;;;;;5056367;28;20466;-84
2021/07/12 10:15:19;;;;;;;3.13;2.17;;;29.70;55.00;;;;;;5056007;28;20176;-84
2021/07/12 10:17:46;;;;;;;5.20;2.13;;;29.70;53.70;;;;;;5055910;28;20177;-84
2021/07/12 10:20:14;;;;;;;4.63;2.60;;;29.80;53.80;;;;;;5055989;28;20440;-85
2021/07/12 10:22:42;;;;;;;3.28;1.73;;;30.00;53.30;;;;;;5056647;28;20197;-84
2021/07/12 10:25:16;;;;;;;3.35;1.67;;;30.10;52.90;;;;;;5055782;28;20641;-84
2021/07/12 10:28:01;;;;;;;3.92;2.40;;;30.10;52.00;;;;;;5055352;28;20196;-85
2021/07/12 10:30:31;;;;;;;8.02;2.20;;;30.10;54.30;;;;;;5054760;28;20173;-84
2021/07/12 10:33:09;;;;;;;2.58;2.05;;;30.10;52.40;;;;;;5055014;28;20193;-85
2021/07/12 10:35:47;;;;;;;2.13;1.70;;;29.90;52.10;;;;;;5057372;28;20200;-84
2021/07/12 10:38:25;;;;;;;4.75;2.40;;;29.70;53.20;;;;;;5061067;28;20181;-84
2021/07/12 10:40:55;;;;;;;4.13;2.28;;;29.60;55.10;;;;;;5057818;28;20192;-84
2021/07/12 10:43:40;;;;;;;3.28;2.15;;;29.40;53.90;;;;;;5055991;28;20193;-84
2021/07/12 10:46:06;;;;;;;4.35;2.20;;;29.40;53.00;;;;;;5054723;28;20266;-84
2021/07/12 10:48:40;;;;;;;3.50;1.97;;;29.50;55.80;;;;;;5055420;28;20280;-83
2021/07/12 10:51:22;;;;;;;2.10;1.67;;;29.50;54.70;;;;;;5055738;28;20172;-84
2021/07/12 10:54:07;;;;;;;4.60;2.45;;;29.50;51.70;;;;;;5057857;28;20174;-83
2021/07/12 10:56:56;;;;;;;5.90;2.83;;;29.50;50.40;;;;;;5060710;28;20191;-83
2021/07/12 10:59:26;;;;;;;2.53;1.95;;;29.40;52.60;;;;;;5060061;28;20192;-83
2021/07/12 11:01:53;;;;;;;3.92;1.35;;;29.30;52.40;;;;;;5057166;28;20232;-82
2021/07/12 11:04:34;;;;;;;2.38;1.70;;;29.30;54.30;;;;;;5056182;28;20173;-82
2021/07/12 11:07:02;;;;;;;2.60;1.70;;;29.20;53.90;;;;;;5055704;28;20169;-82
2021/07/12 11:09:47;;;;;;;4.05;2.50;;;29.20;56.00;;;;;;5056134;28;20291;-82
2021/07/12 11:12:31;;;;;;;8.45;2.10;;;29.20;56.40;;;;;;5055826;28;20249;-82
2021/07/12 11:15:18;;;;;;;2.13;1.58;;;29.20;55.50;;;;;;5056251;28;20188;-82
2021/07/12 11:17:52;;;;;;;4.80;2.10;;;29.10;52.60;;;;;;5056170;28;20205;-82
2021/07/12 11:20:51;;;;;;;3.05;1.65;;;29.10;55.90;;;;;;5055731;28;20177;-82
2021/07/12 11:23:37;;;;;;;5.25;2.08;;;29.30;54.10;;;;;;5055557;28;20193;-82
2021/07/12 11:26:23;;;;;;;4.07;1.85;;;29.50;51.10;;;;;;5055899;28;20193;-82
2021/07/12 11:29:08;;;;;;;2.00;1.70;;;29.90;52.20;;;;;;5054926;28;20665;-82
2021/07/12 11:31:40;;;;;;;7.93;2.08;;;30.30;54.60;;;;;;5055774;28;20310;-83
2021/07/12 11:34:17;;;;;;;3.38;1.80;;;30.60;51.30;;;;;;5055539;28;20544;-83
2021/07/12 11:36:48;;;;;;;2.88;1.80;;;30.90;51.90;;;;;;5055083;28;20178;-83
2021/07/12 11:39:17;;;;;;;2.50;1.90;;;31.00;49.00;;;;;;5055163;28;20177;-83
2021/07/12 11:41:42;;;;;;;4.00;2.13;;;31.20;50.70;;;;;;5055273;28;20585;-83
2021/07/12 11:44:10;;;;;;;1.90;1.33;;;31.30;50.50;;;;;;5054882;28;20219;-82
2021/07/12 11:46:36;;;;;;;1.90;1.50;;;31.40;48.70;;;;;;5055080;28;20267;-83
2021/07/12 11:49:09;;;;;;;3.55;1.88;;;31.50;49.90;;;;;;5054840;28;20219;-82
2021/07/12 11:51:37;;;;;;;1.98;1.42;;;31.50;47.30;;;;;;5054493;28;20251;-83
2021/07/12 11:54:16;;;;;;;2.45;1.70;;;31.40;48.20;;;;;;5054581;28;20252;-82
2021/07/12 11:56:54;;;;;;;2.28;1.75;;;31.60;49.90;;;;;;5054887;28;20208;-82
2021/07/12 11:59:34;;;;;;;8.75;1.90;;;31.60;49.00;;;;;;5055330;28;20161;-82
2021/07/12 12:02:07;;;;;;;30.85;3.80;;;31.60;49.20;;;;;;5056006;28;20252;-83
2021/07/12 12:04:42;;;;;;;2.67;1.80;;;31.50;48.20;;;;;;5054895;28;20644;-82
2021/07/12 12:07:23;;;;;;;3.00;1.73;;;31.30;48.60;;;;;;5055347;28;20225;-82
2021/07/12 12:09:51;;;;;;;3.95;1.60;;;31.30;47.70;;;;;;5055814;28;20649;-83
2021/07/12 12:12:29;;;;;;;2.75;1.90;;;31.30;49.50;;;;;;5054652;28;20284;-83
2021/07/12 12:14:57;;;;;;;3.55;2.10;;;31.40;49.20;;;;;;5054250;28;20176;-83
2021/07/12 12:17:23;;;;;;;4.38;2.00;;;31.50;48.70;;;;;;5054517;28;20183;-83
2021/07/12 12:20:20;;;;;;;3.75;1.92;;;31.60;48.10;;;;;;5054421;28;20661;-83
2021/07/12 12:23:08;;;;;;;4.00;1.83;;;31.80;47.10;;;;;;5054985;28;20655;-82
2021/07/12 12:25:45;;;;;;;3.55;1.67;;;32.00;46.20;;;;;;5054228;28;20682;-82
2021/07/12 12:28:31;;;;;;;7.97;2.05;;;31.80;48.10;;;;;;5054769;28;20189;-84
2021/07/12 12:31:06;;;;;;;3.90;1.60;;;31.80;47.80;;;;;;5054730;28;20200;-83
2021/07/12 12:33:40;;;;;;;2.05;1.77;;;32.00;45.40;;;;;;5055495;28;20169;-83
2021/07/12 12:36:13;;;;;;;2.15;1.70;;;32.10;46.10;;;;;;5054974;28;20177;-83
2021/07/12 12:38:51;;;;;;;3.38;2.75;;;32.40;46.60;;;;;;5054595;28;20571;-82
2021/07/12 12:41:20;;;;;;;3.08;1.98;;;32.60;46.70;;;;;;5054111;28;20181;-83
2021/07/12 12:43:58;;;;;;;8.40;2.30;;;32.60;47.40;;;;;;5054457;28;20648;-83
2021/07/12 12:46:24;;;;;;;3.75;1.45;;;32.50;45.60;;;;;;5054394;28;20169;-83
2021/07/12 12:48:50;;;;;;;3.40;1.83;;;32.60;49.40;;;;;;5053937;28;20669;-83
2021/07/12 12:51:26;;;;;;;2.70;1.90;;;32.70;45.80;;;;;;5054813;28;20169;-82
2021/07/12 12:54:06;;;;;;;3.28;1.85;;;32.80;46.00;;;;;;5054205;28;20320;-82
2021/07/12 12:56:32;;;;;;;3.35;1.60;;;33.00;47.80;;;;;;5054829;28;20165;-83
2021/07/12 12:59:03;;;;;;;2.45;1.95;;;33.20;45.00;;;;;;5054067;28;20177;-82
2021/07/12 13:01:31;;;;;;;2.00;1.60;;;33.30;45.30;;;;;;5053915;28;20213;-83
2021/07/12 13:04:08;;;;;;;6.75;2.20;;;33.30;44.80;;;;;;5053862;28;20239;-82